Terminal Aerodrome Forecast
Issued by NWS Goodland, KS

Home | Current Version | Previous Version | Text Only | Print | Product List | Glossary On
Versions: 1 2 3 4 5 6 7 8 9 10 11 12 13 14 15 16 17 18 19 20
000
FTUS43 KGLD 241020 AAC
TAFGLD
TAF AMD
KGLD 241020Z 2410/2506 03027G39KT P6SM VCTS OVC004CB
     FM241300 04018G26KT 4SM RASN BKN010
     FM241800 35033G48KT 5SM -RASN OVC008
     FM242200 35030G41KT P6SM VCSH OVC015
     FM250000 35022G33KT P6SM OVC008
     FM250300 35015G23KT P6SM BKN035
     FM250500 35014KT P6SM SCT060=

USA.gov is the U.S. government's official web portal to all federal, state and local government web resources and services.